Time;durP1;ratioP1;P1;durP2;ratioP2;P2;SDS_P1;SDS_P2;PMS_P1;PMS_P2;Temp;Humidity;BMP_temperature;BMP_pressure;BME280_temperature;BME280_humidity;BME280_pressure;Samples;Min_cycle;Max_cycle;Signal;HPM_P1;HPM_P2
2023/08/17 00:00:49;;;;;;;4.53;3.53;;;19.20;99.90;;;;;;5049883;28;20455;-74
2023/08/17 00:03:16;;;;;;;3.40;3.10;;;19.20;99.90;;;;;;5050198;28;20459;-74
2023/08/17 00:05:43;;;;;;;3.37;3.17;;;19.20;99.90;;;;;;5050228;28;20457;-74
2023/08/17 00:08:09;;;;;;;6.50;3.93;;;19.20;99.90;;;;;;5049831;28;20473;-74
2023/08/17 00:10:38;;;;;;;3.67;3.37;;;19.20;99.90;;;;;;5049910;28;20531;-74
2023/08/17 00:13:05;;;;;;;3.80;3.50;;;19.20;99.90;;;;;;5050365;28;20457;-75
2023/08/17 00:15:33;;;;;;;5.00;3.77;;;19.20;99.90;;;;;;5051044;28;20469;-74
2023/08/17 00:18:00;;;;;;;4.20;3.80;;;19.20;99.90;;;;;;5050846;28;20518;-74
2023/08/17 00:20:27;;;;;;;5.63;4.50;;;19.10;99.90;;;;;;5050734;28;20837;-74
2023/08/17 00:22:53;;;;;;;4.50;4.10;;;19.10;99.90;;;;;;5051213;28;20462;-74
2023/08/17 00:25:20;;;;;;;4.20;3.80;;;19.10;99.90;;;;;;5050536;28;20458;-74
2023/08/17 00:27:47;;;;;;;4.33;3.93;;;19.10;99.90;;;;;;5050129;28;20478;-74
2023/08/17 00:30:14;;;;;;;4.67;4.00;;;19.10;99.90;;;;;;5050687;28;20476;-74
2023/08/17 00:32:42;;;;;;;4.93;4.10;;;19.10;99.90;;;;;;5051193;28;20452;-75
2023/08/17 00:35:09;;;;;;;6.77;3.77;;;19.10;99.90;;;;;;5051036;28;20462;-74
2023/08/17 00:37:36;;;;;;;4.83;4.40;;;19.00;99.90;;;;;;5053007;28;20939;-74
2023/08/17 00:40:04;;;;;;;4.80;4.30;;;19.00;99.90;;;;;;5054847;28;20479;-74
2023/08/17 00:42:30;;;;;;;5.23;4.10;;;19.00;99.90;;;;;;5055434;28;20499;-74
2023/08/17 00:44:57;;;;;;;4.90;4.17;;;19.00;99.90;;;;;;5044459;28;20457;-75
2023/08/17 00:47:26;;;;;;;4.47;4.07;;;18.90;99.90;;;;;;5034861;28;20865;-74
2023/08/17 00:49:54;;;;;;;4.67;4.27;;;18.90;99.90;;;;;;5053078;28;20486;-74
2023/08/17 00:52:21;;;;;;;3.90;3.60;;;18.90;99.90;;;;;;5055243;28;20461;-74
2023/08/17 00:54:48;;;;;;;5.00;4.50;;;18.90;99.90;;;;;;5037317;28;20464;-74
2023/08/17 00:57:15;;;;;;;4.87;4.30;;;18.90;99.90;;;;;;5047802;28;20451;-74
2023/08/17 00:59:42;;;;;;;5.10;4.60;;;18.90;99.90;;;;;;5046714;28;20477;-74
2023/08/17 01:02:09;;;;;;;5.77;4.90;;;18.90;99.90;;;;;;5035198;28;20457;-74
2023/08/17 01:04:36;;;;;;;5.80;4.53;;;18.80;99.90;;;;;;5042003;28;20462;-74
2023/08/17 01:07:04;;;;;;;4.00;3.70;;;18.80;99.90;;;;;;5043067;28;20469;-74
2023/08/17 01:09:31;;;;;;;4.43;4.03;;;18.80;99.90;;;;;;5040686;28;20478;-74
2023/08/17 01:12:06;;;;;;;4.50;4.10;;;18.80;99.90;;;;;;5045741;28;20483;-74
2023/08/17 01:14:44;;;;;;;5.70;5.20;;;18.70;99.90;;;;;;5039015;28;20485;-74
2023/08/17 01:17:15;;;;;;;5.97;4.37;;;18.80;99.90;;;;;;5034085;28;20461;-74
2023/08/17 01:19:43;;;;;;;5.20;4.47;;;18.70;99.90;;;;;;5034170;28;20485;-74
2023/08/17 01:22:13;;;;;;;4.33;4.00;;;18.70;99.90;;;;;;5034397;28;20464;-74
2023/08/17 01:24:41;;;;;;;5.27;4.77;;;18.70;99.90;;;;;;5034732;28;20453;-74
2023/08/17 01:27:08;;;;;;;4.97;4.53;;;18.70;99.90;;;;;;5045694;28;21149;-74
2023/08/17 01:29:35;;;;;;;4.10;3.70;;;18.70;99.90;;;;;;5046913;28;20485;-74
2023/08/17 01:32:08;;;;;;;5.17;4.67;;;18.70;99.90;;;;;;5034197;28;20846;-74
2023/08/17 01:34:40;;;;;;;4.77;4.37;;;18.80;99.90;;;;;;5040826;28;20456;-74
2023/08/17 01:37:10;;;;;;;6.77;5.50;;;18.80;99.90;;;;;;5033853;28;20533;-73
2023/08/17 01:39:40;;;;;;;6.00;5.40;;;18.80;99.90;;;;;;5040517;28;20487;-74
2023/08/17 01:42:09;;;;;;;8.30;5.43;;;18.80;99.90;;;;;;5042190;28;20821;-74
2023/08/17 01:44:36;;;;;;;4.90;4.40;;;18.80;99.90;;;;;;5033840;28;20456;-74
2023/08/17 01:47:03;;;;;;;4.70;4.30;;;18.80;99.90;;;;;;5042217;28;20464;-74
2023/08/17 01:49:30;;;;;;;4.60;4.20;;;18.80;99.90;;;;;;5032503;28;20489;-74
2023/08/17 01:51:57;;;;;;;5.63;4.63;;;18.90;99.90;;;;;;5033902;28;20466;-74
2023/08/17 01:54:24;;;;;;;4.80;4.13;;;18.90;99.90;;;;;;5038521;28;20460;-74
2023/08/17 01:56:51;;;;;;;4.73;4.30;;;18.90;99.90;;;;;;5044008;28;20455;-74
2023/08/17 01:59:19;;;;;;;9.93;5.63;;;18.90;99.90;;;;;;5044718;28;20479;-74
2023/08/17 02:01:46;;;;;;;4.90;4.50;;;18.90;99.90;;;;;;5036496;28;20469;-74
2023/08/17 02:04:12;;;;;;;6.07;4.80;;;19.00;99.90;;;;;;5044322;28;20463;-74
2023/08/17 02:06:39;;;;;;;5.10;4.60;;;19.00;99.90;;;;;;5052450;28;20484;-74
2023/08/17 02:09:06;;;;;;;4.33;3.93;;;19.00;99.90;;;;;;5051827;28;20556;-75
2023/08/17 02:11:33;;;;;;;5.90;5.00;;;19.00;99.90;;;;;;5052442;28;20842;-75
2023/08/17 02:13:59;;;;;;;4.60;4.20;;;19.00;99.90;;;;;;5052140;28;20463;-74
2023/08/17 02:16:27;;;;;;;4.57;3.90;;;19.00;99.90;;;;;;5052022;28;20833;-74
2023/08/17 02:18:54;;;;;;;4.20;3.80;;;19.10;99.90;;;;;;5051975;28;20473;-74
2023/08/17 02:21:21;;;;;;;4.70;4.17;;;19.10;99.90;;;;;;5051765;28;20452;-74
2023/08/17 02:23:48;;;;;;;5.20;4.70;;;19.10;99.90;;;;;;5052208;28;20465;-74
2023/08/17 02:26:14;;;;;;;4.63;3.80;;;19.10;99.90;;;;;;5052016;28;20826;-74
2023/08/17 02:28:41;;;;;;;6.87;4.60;;;19.10;99.90;;;;;;5051804;28;20479;-74
2023/08/17 02:31:08;;;;;;;5.90;4.50;;;19.10;99.90;;;;;;5068328;22;21253;-69
2023/08/17 02:33:36;;;;;;;4.90;4.40;;;19.10;99.90;;;;;;5057187;28;20454;-68
2023/08/17 02:36:04;;;;;;;5.77;5.17;;;19.20;99.90;;;;;;5061909;28;20908;-69
2023/08/17 02:38:30;;;;;;;5.93;5.33;;;19.20;99.90;;;;;;5069434;28;20467;-68
2023/08/17 02:40:57;;;;;;;8.17;6.17;;;19.20;99.90;;;;;;5071501;28;20458;-68
2023/08/17 02:43:24;;;;;;;9.47;6.23;;;19.20;99.90;;;;;;5072183;28;20455;-69
2023/08/17 02:45:50;;;;;;;7.30;6.50;;;19.20;99.90;;;;;;5071694;28;20487;-69
2023/08/17 02:48:17;;;;;;;7.83;6.43;;;19.30;99.90;;;;;;5071634;28;20480;-68
2023/08/17 02:50:45;;;;;;;9.37;7.90;;;19.30;99.90;;;;;;5071451;28;20453;-69
2023/08/17 02:53:12;;;;;;;7.80;6.60;;;19.30;99.90;;;;;;5071408;28;20460;-68
2023/08/17 02:55:39;;;;;;;8.97;6.37;;;19.30;99.90;;;;;;5071773;28;20478;-69
2023/08/17 02:58:05;;;;;;;8.73;6.53;;;19.40;99.90;;;;;;5071172;28;20451;-69
2023/08/17 03:00:32;;;;;;;7.57;5.90;;;19.30;99.90;;;;;;5071085;28;20863;-68
2023/08/17 03:02:59;;;;;;;9.50;6.63;;;19.30;99.90;;;;;;5071107;28;20459;-69
2023/08/17 03:05:25;;;;;;;9.50;6.53;;;19.40;99.90;;;;;;5071406;28;20458;-69
2023/08/17 03:07:53;;;;;;;10.00;7.47;;;19.40;99.90;;;;;;5070929;28;20975;-69
2023/08/17 03:10:20;;;;;;;10.33;6.77;;;19.40;99.90;;;;;;5055257;28;20507;-67
2023/08/17 03:12:47;;;;;;;8.50;7.53;;;19.40;99.90;;;;;;5071237;28;20461;-69
2023/08/17 03:15:13;;;;;;;11.20;7.60;;;19.40;99.90;;;;;;5071014;28;20468;-68
2023/08/17 03:17:40;;;;;;;10.67;7.57;;;19.30;99.90;;;;;;5071064;28;20461;-69
2023/08/17 03:20:08;;;;;;;10.20;7.00;;;19.40;99.90;;;;;;5070328;28;20507;-68
2023/08/17 03:22:35;;;;;;;8.33;6.30;;;19.30;99.90;;;;;;5070744;28;20567;-69
2023/08/17 03:25:03;;;;;;;10.70;7.90;;;19.30;99.90;;;;;;5070344;28;20457;-68
2023/08/17 03:27:30;;;;;;;8.50;7.17;;;19.30;99.90;;;;;;5070460;28;20459;-68
2023/08/17 03:29:57;;;;;;;13.13;7.73;;;19.30;99.90;;;;;;5065453;28;20494;-68
2023/08/17 03:32:24;;;;;;;10.33;7.73;;;19.30;99.90;;;;;;5043022;28;20465;-68
2023/08/17 03:34:50;;;;;;;9.77;6.83;;;19.30;99.90;;;;;;5043797;28;20465;-68
2023/08/17 03:37:17;;;;;;;9.60;7.57;;;19.20;99.90;;;;;;5045911;28;20455;-68
2023/08/17 03:39:44;;;;;;;8.30;6.67;;;19.30;99.90;;;;;;5042570;28;20471;-67
2023/08/17 03:42:12;;;;;;;8.60;6.97;;;19.20;99.90;;;;;;5045698;28;20465;-68
2023/08/17 03:44:38;;;;;;;11.83;7.83;;;19.20;99.90;;;;;;5042591;28;20825;-68
2023/08/17 03:47:05;;;;;;;12.80;8.93;;;19.20;99.90;;;;;;5057346;28;20461;-68
2023/08/17 03:49:32;;;;;;;11.40;6.90;;;19.20;99.90;;;;;;5052508;28;20484;-68
2023/08/17 03:51:59;;;;;;;9.63;7.23;;;19.20;99.90;;;;;;5046379;28;20928;-68
2023/08/17 03:54:25;;;;;;;9.53;7.13;;;19.20;99.90;;;;;;5037813;28;20459;-67
2023/08/17 03:56:54;;;;;;;9.23;7.50;;;19.20;99.90;;;;;;5042397;28;20452;-68
2023/08/17 03:59:22;;;;;;;9.27;7.47;;;19.20;99.90;;;;;;5041143;28;20993;-67
2023/08/17 04:01:48;;;;;;;10.50;8.80;;;19.20;99.90;;;;;;5033845;28;20466;-69
2023/08/17 04:04:15;;;;;;;11.57;8.93;;;19.20;99.90;;;;;;5035560;28;20468;-67
2023/08/17 04:06:42;;;;;;;9.03;7.80;;;19.20;99.90;;;;;;5033706;28;20466;-67
2023/08/17 04:09:09;;;;;;;12.57;8.40;;;19.20;99.90;;;;;;5041952;28;20985;-68
2023/08/17 04:11:37;;;;;;;9.43;7.30;;;19.20;99.90;;;;;;5034997;28;20851;-67
2023/08/17 04:14:04;;;;;;;11.63;7.33;;;19.20;99.90;;;;;;5037023;28;20951;-67
2023/08/17 04:16:33;;;;;;;12.00;8.63;;;19.20;99.90;;;;;;5041863;28;20474;-68
2023/08/17 04:19:00;;;;;;;11.67;8.37;;;19.20;99.90;;;;;;5037878;28;20477;-68
2023/08/17 04:21:26;;;;;;;11.80;7.90;;;19.20;99.90;;;;;;5036743;28;20466;-68
2023/08/17 04:23:53;;;;;;;10.33;8.47;;;19.20;99.90;;;;;;5031014;28;20834;-68
2023/08/17 04:26:20;;;;;;;9.30;8.07;;;19.10;99.90;;;;;;5067154;28;20485;-68
2023/08/17 04:28:47;;;;;;;11.13;8.37;;;19.20;99.90;;;;;;5059067;28;20486;-68
2023/08/17 04:31:14;;;;;;;11.47;8.50;;;19.10;99.90;;;;;;5068171;28;20850;-68
2023/08/17 04:33:42;;;;;;;11.00;7.80;;;19.10;99.90;;;;;;5066334;28;20460;-68
2023/08/17 04:36:09;;;;;;;12.37;8.07;;;19.10;99.90;;;;;;5067134;28;20455;-68
2023/08/17 04:38:35;;;;;;;10.70;7.07;;;19.10;99.90;;;;;;5069176;28;20485;-68
2023/08/17 04:41:02;;;;;;;13.30;8.70;;;19.10;99.90;;;;;;5069014;28;20452;-68
2023/08/17 04:43:29;;;;;;;11.77;8.43;;;19.10;99.90;;;;;;5069932;28;20727;-68
2023/08/17 04:45:55;;;;;;;11.57;7.27;;;19.10;99.90;;;;;;5069499;28;20483;-68
2023/08/17 04:48:22;;;;;;;9.80;7.80;;;19.10;99.90;;;;;;5069232;28;20467;-67
2023/08/17 04:50:51;;;;;;;10.73;8.17;;;19.10;99.90;;;;;;5069285;28;20956;-68
2023/08/17 04:53:18;;;;;;;9.60;7.60;;;19.20;99.90;;;;;;5069531;28;20469;-68
2023/08/17 04:55:45;;;;;;;11.40;8.20;;;19.20;99.90;;;;;;5069453;28;20459;-68
2023/08/17 04:58:11;;;;;;;12.53;9.07;;;19.20;99.90;;;;;;5069137;28;20470;-68
2023/08/17 05:00:38;;;;;;;8.83;7.10;;;19.10;99.90;;;;;;5069344;28;20835;-68
2023/08/17 05:03:05;;;;;;;12.83;8.63;;;19.20;99.90;;;;;;5069147;28;20464;-68
2023/08/17 05:05:32;;;;;;;10.57;6.90;;;19.10;99.90;;;;;;5064097;28;20465;-67
2023/08/17 05:08:00;;;;;;;11.40;8.23;;;19.20;99.90;;;;;;5067426;28;20461;-67
2023/08/17 05:10:27;;;;;;;11.13;8.10;;;19.20;99.90;;;;;;5068991;28;20485;-67
2023/08/17 05:12:55;;;;;;;8.40;6.77;;;19.10;99.90;;;;;;5069212;28;20560;-68
2023/08/17 05:15:22;;;;;;;10.57;6.83;;;19.20;99.90;;;;;;5060745;28;20459;-68
2023/08/17 05:17:49;;;;;;;10.53;7.67;;;19.20;99.90;;;;;;5069231;28;20463;-67
2023/08/17 05:20:16;;;;;;;8.87;7.23;;;19.20;99.90;;;;;;5068454;28;20473;-68
2023/08/17 05:22:43;;;;;;;11.10;8.10;;;19.20;99.90;;;;;;5069649;28;20460;-67
2023/08/17 05:25:12;;;;;;;12.63;9.53;;;19.20;99.90;;;;;;5071725;28;20457;-67
2023/08/17 05:27:38;;;;;;;11.87;8.07;;;19.20;99.90;;;;;;5072785;28;20465;-68
2023/08/17 05:30:07;;;;;;;10.77;8.10;;;19.20;99.90;;;;;;5072280;28;20486;-68
2023/08/17 05:32:33;;;;;;;14.23;9.37;;;19.20;99.90;;;;;;5056852;28;20459;-67
2023/08/17 05:35:00;;;;;;;12.73;9.93;;;19.20;99.90;;;;;;5072415;28;20852;-67
2023/08/17 05:37:28;;;;;;;11.13;8.50;;;19.20;99.90;;;;;;5072430;28;20469;-68
2023/08/17 05:39:55;;;;;;;15.10;9.10;;;19.20;99.90;;;;;;5072305;28;20817;-68
2023/08/17 05:42:23;;;;;;;12.07;8.27;;;19.20;99.90;;;;;;5072705;28;20460;-68
2023/08/17 05:44:50;;;;;;;11.83;8.10;;;19.30;99.90;;;;;;5072124;28;20456;-67
2023/08/17 05:47:19;;;;;;;14.37;8.83;;;19.30;99.90;;;;;;5072323;28;20461;-68
2023/08/17 05:49:46;;;;;;;13.30;9.30;;;19.30;99.90;;;;;;5071851;28;20492;-68
2023/08/17 05:52:13;;;;;;;19.10;11.13;;;19.30;99.90;;;;;;5072439;28;20554;-68
2023/08/17 05:54:40;;;;;;;15.13;10.10;;;19.40;99.90;;;;;;5072383;28;20456;-67
2023/08/17 05:57:09;;;;;;;15.57;9.90;;;19.40;99.90;;;;;;5071467;28;20467;-68
2023/08/17 05:59:38;;;;;;;12.27;8.80;;;19.40;99.90;;;;;;5072210;28;20496;-68
2023/08/17 06:02:05;;;;;;;11.37;7.67;;;19.50;99.90;;;;;;5072188;28;20464;-68
2023/08/17 06:04:31;;;;;;;13.00;9.53;;;19.50;99.90;;;;;;5072024;28;20460;-67
2023/08/17 06:06:58;;;;;;;11.23;8.00;;;19.50;99.90;;;;;;5071722;28;20558;-68
2023/08/17 06:09:25;;;;;;;11.23;9.67;;;19.50;99.90;;;;;;5071734;28;20489;-66
2023/08/17 06:11:52;;;;;;;13.40;9.33;;;19.60;99.90;;;;;;5071876;28;20465;-67
2023/08/17 06:14:18;;;;;;;13.67;10.23;;;19.60;99.90;;;;;;5072213;28;20456;-68
2023/08/17 06:16:46;;;;;;;12.93;9.67;;;19.60;99.90;;;;;;5068636;28;20467;-68
2023/08/17 06:19:13;;;;;;;13.90;10.47;;;19.70;99.90;;;;;;5067891;28;20476;-67
2023/08/17 06:21:40;;;;;;;12.17;8.33;;;19.60;99.90;;;;;;5068137;28;20460;-67
2023/08/17 06:24:07;;;;;;;12.00;8.40;;;19.70;99.90;;;;;;5067471;28;20461;-67
2023/08/17 06:26:33;;;;;;;13.33;10.03;;;19.60;99.90;;;;;;5071165;28;20458;-68
2023/08/17 06:29:00;;;;;;;12.40;9.37;;;19.70;99.90;;;;;;5071266;28;20994;-67
2023/08/17 06:31:27;;;;;;;12.13;9.90;;;19.70;99.90;;;;;;5065529;28;20478;-68
2023/08/17 06:33:55;;;;;;;11.77;9.50;;;19.60;99.90;;;;;;5071193;28;20455;-68
2023/08/17 06:36:22;;;;;;;10.03;8.00;;;19.60;99.90;;;;;;5070769;28;20456;-67
2023/08/17 06:38:48;;;;;;;14.27;9.70;;;19.70;99.90;;;;;;5070912;28;20844;-67
2023/08/17 06:41:16;;;;;;;12.83;9.03;;;19.70;99.90;;;;;;5070806;28;20461;-67
2023/08/17 06:43:43;;;;;;;12.53;8.67;;;19.70;99.90;;;;;;5071131;28;20468;-68
2023/08/17 06:46:09;;;;;;;10.47;8.23;;;19.80;99.90;;;;;;5071097;28;20469;-67
2023/08/17 06:48:36;;;;;;;8.33;7.40;;;19.80;99.90;;;;;;5070532;28;20488;-68
2023/08/17 06:51:05;;;;;;;10.47;8.10;;;19.80;99.90;;;;;;5070637;28;20482;-68
2023/08/17 06:53:31;;;;;;;16.07;9.93;;;19.90;99.90;;;;;;5071019;28;20467;-68
2023/08/17 06:55:58;;;;;;;11.90;9.10;;;19.90;99.90;;;;;;5070189;28;20855;-67
2023/08/17 06:58:25;;;;;;;12.17;8.70;;;19.90;99.90;;;;;;5070676;28;20477;-68
2023/08/17 07:00:51;;;;;;;13.00;9.70;;;19.90;99.90;;;;;;5070498;28;20495;-68
2023/08/17 07:03:18;;;;;;;12.63;8.60;;;20.00;99.90;;;;;;5070484;28;20455;-68
2023/08/17 07:05:45;;;;;;;11.13;8.20;;;20.00;99.90;;;;;;5070927;28;20468;-67
2023/08/17 07:08:13;;;;;;;12.17;8.30;;;20.10;99.90;;;;;;5070718;28;20464;-68
2023/08/17 07:10:40;;;;;;;12.60;8.83;;;20.10;99.90;;;;;;5070346;28;20484;-68
2023/08/17 07:13:06;;;;;;;13.03;9.50;;;20.00;99.90;;;;;;5070610;28;20523;-68
2023/08/17 07:15:33;;;;;;;14.57;8.30;;;20.10;99.90;;;;;;5070809;28;20583;-68
2023/08/17 07:18:00;;;;;;;11.73;8.33;;;20.10;99.90;;;;;;5070219;28;20891;-68
2023/08/17 07:20:27;;;;;;;10.70;8.23;;;20.10;99.90;;;;;;5070131;28;20481;-68
2023/08/17 07:22:53;;;;;;;14.10;9.80;;;20.10;99.90;;;;;;5070724;28;20469;-68
2023/08/17 07:25:21;;;;;;;10.90;8.23;;;20.10;99.90;;;;;;5070556;28;20463;-67
2023/08/17 07:27:48;;;;;;;10.90;8.30;;;20.20;99.90;;;;;;5070376;28;20458;-67
2023/08/17 07:30:15;;;;;;;12.73;8.40;;;20.30;99.90;;;;;;5070082;28;20482;-68
2023/08/17 07:32:42;;;;;;;10.47;7.60;;;20.30;99.90;;;;;;5069984;28;20461;-68
2023/08/17 07:35:09;;;;;;;8.30;7.20;;;20.40;99.90;;;;;;5070251;28;21181;-68
2023/08/17 07:37:36;;;;;;;10.07;8.80;;;20.40;99.90;;;;;;5070185;28;20462;-67
2023/08/17 07:40:04;;;;;;;11.93;8.20;;;20.50;99.90;;;;;;5069493;28;21315;-68
2023/08/17 07:42:32;;;;;;;9.77;7.30;;;20.50;99.90;;;;;;5070290;28;20458;-67
2023/08/17 07:44:59;;;;;;;9.83;7.80;;;20.60;99.90;;;;;;5069456;28;20945;-68
2023/08/17 07:47:25;;;;;;;10.00;8.20;;;20.70;99.90;;;;;;5069268;28;20463;-69
2023/08/17 07:49:52;;;;;;;9.10;6.67;;;20.70;99.90;;;;;;5069500;28;20492;-68
2023/08/17 07:52:19;;;;;;;10.60;7.80;;;20.80;99.90;;;;;;5070462;28;20462;-68
2023/08/17 07:54:46;;;;;;;7.73;6.60;;;20.90;99.90;;;;;;5070108;28;20465;-68
2023/08/17 07:57:13;;;;;;;7.20;6.43;;;21.10;99.90;;;;;;5069621;28;20465;-67
2023/08/17 07:59:41;;;;;;;9.37;6.90;;;21.20;99.90;;;;;;5069817;28;20469;-68
2023/08/17 08:02:08;;;;;;;7.93;6.97;;;21.30;99.90;;;;;;5069687;28;20465;-67
2023/08/17 08:04:34;;;;;;;9.47;6.80;;;21.40;99.90;;;;;;5070066;28;20461;-68
2023/08/17 08:07:01;;;;;;;8.73;7.23;;;21.40;99.90;;;;;;5069868;28;20453;-68
2023/08/17 08:09:28;;;;;;;8.70;6.73;;;21.50;99.90;;;;;;5069005;28;20478;-68
2023/08/17 08:11:54;;;;;;;8.23;7.10;;;21.60;99.90;;;;;;5070131;28;20481;-68
2023/08/17 08:14:21;;;;;;;7.43;6.40;;;21.70;99.90;;;;;;5069516;28;20500;-68
2023/08/17 08:16:49;;;;;;;8.40;7.33;;;21.80;99.90;;;;;;5052802;28;20466;-68
2023/08/17 08:19:16;;;;;;;7.40;6.60;;;21.90;99.90;;;;;;5069669;28;20475;-68
2023/08/17 08:21:42;;;;;;;6.97;5.97;;;21.90;99.90;;;;;;5063886;28;20473;-67
2023/08/17 08:24:09;;;;;;;7.40;6.60;;;22.00;99.90;;;;;;5068869;28;20497;-68
2023/08/17 08:26:36;;;;;;;6.10;5.50;;;22.10;99.90;;;;;;5068960;28;20950;-68
2023/08/17 08:29:03;;;;;;;6.63;5.93;;;22.10;99.90;;;;;;5068703;28;20474;-67
2023/08/17 08:31:29;;;;;;;5.93;5.33;;;22.20;99.90;;;;;;5061676;28;20490;-68
2023/08/17 08:33:59;;;;;;;6.97;5.90;;;22.30;99.90;;;;;;5069059;28;20455;-68
2023/08/17 08:36:26;;;;;;;7.37;5.13;;;22.50;99.90;;;;;;5068988;28;20460;-68
2023/08/17 08:38:52;;;;;;;5.53;5.00;;;22.60;99.90;;;;;;5068289;28;20479;-68
2023/08/17 08:41:20;;;;;;;5.27;4.77;;;22.60;99.90;;;;;;5068587;28;20950;-68
2023/08/17 08:43:47;;;;;;;4.83;4.43;;;22.70;99.90;;;;;;5068508;28;20474;-68
2023/08/17 08:46:17;;;;;;;5.67;4.23;;;22.90;99.90;;;;;;5067906;28;20470;-68
2023/08/17 08:48:46;;;;;;;4.17;3.80;;;23.10;99.90;;;;;;5068221;28;20558;-68
2023/08/17 08:51:19;;;;;;;4.17;3.77;;;23.20;99.90;;;;;;5068410;28;20487;-68
2023/08/17 08:53:46;;;;;;;4.07;3.73;;;23.40;99.90;;;;;;5068246;28;20490;-68
2023/08/17 08:56:13;;;;;;;4.00;3.60;;;23.50;99.90;;;;;;5068616;28;20515;-67
2023/08/17 08:58:42;;;;;;;4.57;3.67;;;23.60;99.90;;;;;;5070113;28;20481;-68
2023/08/17 09:01:11;;;;;;;4.40;3.77;;;23.80;99.90;;;;;;5071741;28;21026;-68
2023/08/17 09:03:39;;;;;;;3.50;3.20;;;23.80;99.90;;;;;;5072489;28;20456;-68
2023/08/17 09:06:06;;;;;;;4.10;3.80;;;23.90;99.90;;;;;;5072303;28;20816;-68
2023/08/17 09:08:35;;;;;;;6.10;3.23;;;24.00;99.90;;;;;;5071681;28;21035;-67
2023/08/17 09:11:01;;;;;;;4.60;3.57;;;24.10;99.90;;;;;;5071435;28;20481;-68
2023/08/17 09:13:29;;;;;;;3.73;3.40;;;24.20;99.90;;;;;;5072155;28;20465;-67
2023/08/17 09:15:58;;;;;;;3.63;3.20;;;24.30;99.90;;;;;;5071636;28;20466;-67
2023/08/17 09:18:24;;;;;;;3.80;3.50;;;24.40;99.90;;;;;;5072057;28;20453;-68
2023/08/17 09:20:53;;;;;;;3.40;3.10;;;24.60;99.90;;;;;;5071565;28;20447;-68
2023/08/17 09:23:21;;;;;;;3.77;3.47;;;24.70;99.90;;;;;;5071422;28;20942;-68
2023/08/17 09:25:51;;;;;;;4.03;3.73;;;24.80;99.90;;;;;;5071776;28;20553;-68
2023/08/17 09:28:20;;;;;;;3.87;3.57;;;24.80;99.90;;;;;;5071771;28;20458;-67
2023/08/17 09:30:54;;;;;;;4.40;4.00;;;24.90;99.90;;;;;;5070668;28;20535;-68
2023/08/17 09:33:22;;;;;;;4.20;3.83;;;25.00;99.90;;;;;;5072005;28;20455;-68
2023/08/17 09:35:49;;;;;;;4.70;4.30;;;25.00;99.90;;;;;;5071253;28;20458;-68
2023/08/17 09:38:16;;;;;;;3.87;3.57;;;25.10;99.90;;;;;;5071390;28;20854;-68
2023/08/17 09:40:43;;;;;;;4.00;3.60;;;25.20;99.90;;;;;;5071184;28;20450;-67
2023/08/17 09:43:12;;;;;;;4.17;3.80;;;25.30;99.90;;;;;;5072009;28;20882;-68
2023/08/17 09:45:41;;;;;;;5.23;4.83;;;25.40;99.90;;;;;;5065755;28;20467;-67
2023/08/17 09:48:09;;;;;;;5.60;4.00;;;25.50;99.90;;;;;;5071905;28;20883;-68
2023/08/17 09:50:36;;;;;;;4.77;4.37;;;25.70;99.90;;;;;;5072115;28;20513;-68
2023/08/17 09:53:03;;;;;;;4.60;4.20;;;25.80;99.90;;;;;;5072133;28;20890;-68
2023/08/17 09:55:32;;;;;;;3.80;3.50;;;25.80;99.90;;;;;;5067743;28;20471;-68
2023/08/17 09:58:00;;;;;;;4.80;4.23;;;26.00;99.90;;;;;;5072038;28;20485;-68
2023/08/17 10:00:29;;;;;;;4.27;3.87;;;26.30;99.90;;;;;;5071327;28;20470;-68
2023/08/17 10:02:58;;;;;;;4.13;3.83;;;26.40;99.90;;;;;;5071931;28;20459;-68
2023/08/17 10:05:29;;;;;;;5.33;4.87;;;26.50;99.90;;;;;;5072319;28;20466;-68
2023/08/17 10:07:58;;;;;;;5.10;4.70;;;26.50;99.90;;;;;;5071398;28;20451;-68
2023/08/17 10:10:28;;;;;;;5.63;3.60;;;26.50;99.90;;;;;;5064783;28;20892;-68
2023/08/17 10:13:04;;;;;;;4.30;4.00;;;26.50;99.90;;;;;;5070469;28;20928;-69
2023/08/17 10:15:37;;;;;;;4.47;4.07;;;26.50;99.90;;;;;;5062586;28;20566;-69
2023/08/17 10:18:14;;;;;;;3.97;3.57;;;26.40;99.90;;;;;;5063428;28;20469;-69
2023/08/17 10:20:46;;;;;;;4.87;4.47;;;26.30;99.90;;;;;;5070678;28;20450;-66
2023/08/17 10:23:17;;;;;;;4.67;3.87;;;26.20;99.90;;;;;;5070635;28;20537;-65
2023/08/17 10:25:45;;;;;;;4.20;3.90;;;26.30;99.90;;;;;;5070660;28;20455;-68
2023/08/17 10:28:12;;;;;;;5.30;4.80;;;26.40;99.90;;;;;;5070634;28;21004;-68
2023/08/17 10:30:41;;;;;;;5.20;4.40;;;26.30;99.90;;;;;;5069510;28;20479;-69
2023/08/17 10:33:08;;;;;;;7.10;4.23;;;26.40;99.90;;;;;;5070720;28;20466;-68
2023/08/17 10:35:36;;;;;;;4.10;3.80;;;26.50;99.90;;;;;;5070566;28;20804;-68
2023/08/17 10:38:04;;;;;;;4.83;4.43;;;26.70;99.90;;;;;;5070044;28;20489;-68
2023/08/17 10:40:37;;;;;;;5.20;4.70;;;27.00;99.90;;;;;;5070252;28;20481;-68
2023/08/17 10:43:04;;;;;;;4.53;4.07;;;27.20;99.90;;;;;;5070594;28;20512;-68
2023/08/17 10:45:31;;;;;;;4.67;4.27;;;27.30;99.90;;;;;;5069950;28;20466;-68
2023/08/17 10:48:28;;;;;;;5.00;4.60;;;27.40;99.90;;;;;;5069852;28;20458;-67
2023/08/17 10:51:05;;;;;;;5.30;4.67;;;27.50;99.90;;;;;;5069599;28;20845;-68
2023/08/17 10:53:38;;;;;;;5.90;4.50;;;27.60;99.90;;;;;;5070169;28;21077;-69
2023/08/17 10:56:08;;;;;;;4.30;4.00;;;27.80;99.90;;;;;;5069959;28;20461;-68
2023/08/17 10:58:35;;;;;;;4.07;3.77;;;27.70;99.90;;;;;;5070131;28;20510;-68
2023/08/17 11:01:02;;;;;;;4.37;4.07;;;27.60;99.90;;;;;;5068554;28;20454;-68
2023/08/17 11:05:58;;;;;;;4.73;4.33;;;27.60;99.90;;;;;;5070557;28;20549;-73
2023/08/17 11:08:29;;;;;;;5.00;4.60;;;27.60;99.90;;;;;;5069280;28;20461;-74
2023/08/17 11:11:07;;;;;;;4.53;4.13;;;27.60;99.90;;;;;;5080220;28;20527;-73
2023/08/17 11:13:36;;;;;;;4.87;4.47;;;27.60;99.90;;;;;;5070466;28;20465;-73
2023/08/17 11:16:04;;;;;;;4.80;4.30;;;27.70;99.90;;;;;;5070547;28;20455;-73
2023/08/17 11:18:31;;;;;;;4.60;4.20;;;27.90;99.90;;;;;;5068619;28;21016;-73
2023/08/17 11:21:00;;;;;;;4.43;4.03;;;28.10;99.90;;;;;;5089402;28;20829;-73
2023/08/17 11:23:30;;;;;;;5.37;4.40;;;28.20;99.90;;;;;;5090853;28;20454;-73
2023/08/17 11:25:57;;;;;;;4.57;4.17;;;28.40;99.90;;;;;;5090335;28;20462;-74
2023/08/17 11:28:25;;;;;;;5.00;4.60;;;28.40;99.90;;;;;;5072636;28;20839;-74
2023/08/17 11:30:58;;;;;;;4.07;3.70;;;28.40;99.90;;;;;;5069506;28;20485;-73
2023/08/17 11:33:26;;;;;;;4.73;4.33;;;28.40;99.90;;;;;;5070570;28;20523;-75
2023/08/17 11:35:54;;;;;;;4.10;3.80;;;28.50;99.90;;;;;;5070328;28;20451;-75
2023/08/17 11:38:22;;;;;;;4.70;4.30;;;28.50;99.90;;;;;;5070316;28;20462;-73
2023/08/17 11:40:50;;;;;;;4.53;4.13;;;28.70;99.90;;;;;;5069106;28;20459;-72
2023/08/17 11:43:17;;;;;;;4.57;4.17;;;28.90;99.90;;;;;;5070268;28;20451;-73
2023/08/17 11:45:44;;;;;;;4.70;4.30;;;29.00;99.90;;;;;;5070224;28;20459;-73
2023/08/17 11:48:11;;;;;;;4.87;4.47;;;29.10;99.90;;;;;;5090225;28;20469;-73
2023/08/17 11:50:39;;;;;;;4.70;4.30;;;29.10;99.90;;;;;;5090415;28;20450;-72
2023/08/17 11:53:06;;;;;;;4.53;4.17;;;29.00;99.90;;;;;;5089705;28;20489;-73
2023/08/17 11:55:34;;;;;;;4.83;4.37;;;28.90;99.90;;;;;;5090356;28;20936;-73
2023/08/17 11:58:02;;;;;;;3.97;3.67;;;28.70;99.90;;;;;;5090303;28;20518;-73
2023/08/17 12:00:35;;;;;;;3.90;3.60;;;28.50;99.90;;;;;;5083943;28;20478;-73
2023/08/17 12:03:03;;;;;;;5.00;4.60;;;28.40;99.90;;;;;;5086294;28;20450;-72
2023/08/17 12:05:32;;;;;;;4.50;4.10;;;28.30;99.90;;;;;;5069494;28;20467;-73
2023/08/17 12:08:00;;;;;;;4.13;3.83;;;28.20;99.90;;;;;;5069440;28;20455;-73
2023/08/17 12:10:29;;;;;;;4.90;4.50;;;28.20;99.90;;;;;;5069432;28;20485;-73
2023/08/17 12:13:00;;;;;;;4.40;4.07;;;28.20;99.90;;;;;;5069474;28;20466;-72
2023/08/17 12:15:31;;;;;;;4.27;3.93;;;28.20;99.90;;;;;;5070010;28;20508;-73
2023/08/17 12:18:00;;;;;;;4.27;3.97;;;28.10;99.90;;;;;;5068639;28;20462;-73
2023/08/17 12:20:27;;;;;;;3.97;3.67;;;27.90;99.90;;;;;;5069549;28;20989;-73
2023/08/17 12:22:54;;;;;;;4.47;4.07;;;27.70;99.90;;;;;;5069240;28;20953;-73
2023/08/17 12:25:22;;;;;;;3.93;3.53;;;27.60;99.90;;;;;;5069454;28;20458;-73
2023/08/17 12:27:49;;;;;;;4.40;4.00;;;27.40;99.90;;;;;;5078643;28;20462;-73
2023/08/17 12:30:27;;;;;;;5.23;4.83;;;27.20;99.90;;;;;;5077362;28;20501;-73
2023/08/17 12:32:53;;;;;;;4.60;4.20;;;27.10;99.90;;;;;;5071642;28;20482;-72
2023/08/17 12:35:23;;;;;;;4.80;4.40;;;27.00;99.90;;;;;;5076985;28;20458;-73
2023/08/17 12:37:50;;;;;;;5.23;4.07;;;26.90;99.90;;;;;;5076132;28;20462;-73
2023/08/17 12:40:17;;;;;;;4.27;3.87;;;26.80;99.90;;;;;;5088860;28;20500;-73
2023/08/17 12:42:44;;;;;;;5.03;4.63;;;26.70;99.90;;;;;;5096259;28;20460;-73
2023/08/17 12:45:11;;;;;;;5.10;4.70;;;26.70;99.90;;;;;;5096573;28;20453;-73
2023/08/17 12:47:39;;;;;;;5.63;5.07;;;26.50;99.90;;;;;;5080061;28;20462;-73